Time;durP1;ratioP1;P1;durP2;ratioP2;P2;SDS_P1;SDS_P2;PMS_P1;PMS_P2;Temp;Humidity;BMP_temperature;BMP_pressure;BME280_temperature;BME280_humidity;BME280_pressure;Samples;Min_cycle;Max_cycle;Signal;HPM_P1;HPM_P2
2022/03/29 00:01:33;;;;;;;32.58;30.27;;;10.60;61.10;;;;;;5092464;28;20450;-74
2022/03/29 00:04:00;;;;;;;30.37;28.07;;;10.50;61.30;;;;;;5092288;28;20234;-73
2022/03/29 00:06:28;;;;;;;31.80;29.25;;;10.50;61.30;;;;;;5092536;28;20451;-73
2022/03/29 00:08:55;;;;;;;31.90;29.40;;;10.50;61.40;;;;;;5092465;28;20289;-74
2022/03/29 00:11:23;;;;;;;32.03;29.80;;;10.50;61.50;;;;;;5092342;28;20460;-74
2022/03/29 00:13:49;;;;;;;31.33;29.13;;;10.40;61.70;;;;;;5092540;28;20216;-74
2022/03/29 00:16:17;;;;;;;31.70;29.17;;;10.40;62.00;;;;;;5092391;28;20676;-74
2022/03/29 00:18:44;;;;;;;29.95;27.65;;;10.30;62.10;;;;;;5092204;28;20939;-73
2022/03/29 00:21:12;;;;;;;30.70;28.50;;;10.30;62.10;;;;;;5092228;28;20556;-73
2022/03/29 00:23:40;;;;;;;31.55;29.25;;;10.40;62.00;;;;;;5092339;28;21052;-74
2022/03/29 00:26:07;;;;;;;31.58;28.95;;;10.30;62.20;;;;;;5092395;28;20198;-74
2022/03/29 00:28:34;;;;;;;32.55;30.20;;;10.30;62.30;;;;;;5092122;28;20201;-73
2022/03/29 00:31:01;;;;;;;31.55;29.00;;;10.20;62.50;;;;;;5092072;28;20227;-73
2022/03/29 00:33:28;;;;;;;31.50;28.92;;;10.20;62.60;;;;;;5092105;28;20248;-74
2022/03/29 00:35:54;;;;;;;32.70;30.17;;;10.20;62.40;;;;;;5092215;28;20232;-74
2022/03/29 00:38:21;;;;;;;31.55;29.42;;;10.10;62.70;;;;;;5092332;28;20222;-73
2022/03/29 00:40:50;;;;;;;30.90;28.67;;;10.10;62.90;;;;;;5091981;28;20199;-74
2022/03/29 00:43:16;;;;;;;32.60;30.13;;;10.10;62.90;;;;;;5092179;28;20694;-73
2022/03/29 00:45:45;;;;;;;31.80;29.50;;;10.10;62.90;;;;;;5092015;28;20298;-74
2022/03/29 00:48:13;;;;;;;31.58;29.27;;;10.10;63.10;;;;;;5092118;28;21024;-73
2022/03/29 00:50:41;;;;;;;32.97;30.58;;;10.10;62.90;;;;;;5092038;28;20237;-73
2022/03/29 00:53:10;;;;;;;32.05;29.75;;;10.10;63.00;;;;;;5092035;28;20213;-73
2022/03/29 00:55:38;;;;;;;32.53;30.00;;;10.10;63.20;;;;;;5092005;28;20692;-73
2022/03/29 00:58:07;;;;;;;30.80;28.90;;;10.00;63.50;;;;;;5091816;28;20221;-73
2022/03/29 01:00:36;;;;;;;33.03;30.27;;;9.90;63.80;;;;;;5094292;28;20198;-74
2022/03/29 01:03:03;;;;;;;31.50;29.40;;;9.90;63.80;;;;;;5095773;28;20218;-74
2022/03/29 01:05:30;;;;;;;31.63;29.27;;;9.90;63.80;;;;;;5095523;28;20202;-73
2022/03/29 01:07:58;;;;;;;31.77;29.20;;;9.90;63.90;;;;;;5095724;28;20204;-74
2022/03/29 01:10:25;;;;;;;31.80;29.40;;;9.90;63.90;;;;;;5095171;28;20309;-74
2022/03/29 01:12:52;;;;;;;31.98;29.50;;;9.80;64.20;;;;;;5095732;28;20216;-74
2022/03/29 01:15:23;;;;;;;32.58;30.23;;;9.90;64.10;;;;;;5095515;28;20276;-74
2022/03/29 01:17:50;;;;;;;32.78;30.02;;;9.90;64.10;;;;;;5095422;28;20209;-73
2022/03/29 01:20:20;;;;;;;32.45;29.95;;;9.90;64.00;;;;;;5095021;28;20200;-74
2022/03/29 01:22:49;;;;;;;32.90;30.52;;;9.90;64.10;;;;;;5095254;28;20654;-73
2022/03/29 01:25:18;;;;;;;32.47;29.73;;;9.90;64.30;;;;;;5095331;28;20216;-73
2022/03/29 01:27:47;;;;;;;32.28;29.65;;;9.90;64.30;;;;;;5095190;28;20208;-73
2022/03/29 01:30:15;;;;;;;31.92;29.55;;;9.90;64.30;;;;;;5094984;28;20215;-73
2022/03/29 01:32:46;;;;;;;31.90;29.70;;;9.90;64.60;;;;;;5095209;28;20254;-73
2022/03/29 01:35:13;;;;;;;31.35;29.13;;;9.80;64.70;;;;;;5095188;28;20214;-73
2022/03/29 01:37:40;;;;;;;31.70;29.40;;;9.80;64.90;;;;;;5095247;28;20284;-73
2022/03/29 01:40:13;;;;;;;32.13;29.80;;;9.80;65.60;;;;;;5095105;28;20192;-73
2022/03/29 01:42:41;;;;;;;32.67;30.00;;;9.80;67.00;;;;;;5094969;28;20216;-73
2022/03/29 01:45:09;;;;;;;32.60;29.77;;;9.80;67.00;;;;;;5094961;28;20284;-73
2022/03/29 01:47:36;;;;;;;32.13;29.60;;;9.80;66.00;;;;;;5094995;28;20205;-73
2022/03/29 01:50:05;;;;;;;32.88;30.17;;;9.80;65.80;;;;;;5094703;28;20585;-74
2022/03/29 01:52:39;;;;;;;32.58;30.05;;;9.80;65.60;;;;;;5094816;28;20230;-74
2022/03/29 01:55:06;;;;;;;31.45;28.98;;;9.90;65.20;;;;;;5094861;28;20288;-73
2022/03/29 01:57:34;;;;;;;31.40;28.83;;;9.90;64.70;;;;;;5094667;28;20197;-73
2022/03/29 02:02:46;;;;;;;31.38;28.95;;;9.90;64.10;;;;;;5094586;28;20678;-74
2022/03/29 02:05:12;;;;;;;32.30;29.70;;;9.90;63.90;;;;;;5094387;28;20729;-74
2022/03/29 02:07:39;;;;;;;33.05;30.55;;;10.00;63.80;;;;;;5094517;28;20284;-74
2022/03/29 02:10:07;;;;;;;31.58;29.48;;;10.00;63.00;;;;;;5094004;28;20231;-73
2022/03/29 02:12:35;;;;;;;31.50;29.17;;;10.10;63.10;;;;;;5093575;28;20216;-73
2022/03/29 02:15:03;;;;;;;32.72;29.92;;;10.10;63.20;;;;;;5094338;28;20270;-73
2022/03/29 02:17:30;;;;;;;31.38;28.98;;;10.10;63.30;;;;;;5094372;28;20203;-73
2022/03/29 02:19:57;;;;;;;32.45;30.05;;;10.20;62.90;;;;;;5094245;28;20209;-73
2022/03/29 02:22:24;;;;;;;32.50;30.00;;;10.20;61.90;;;;;;5094147;28;20221;-73
2022/03/29 02:24:52;;;;;;;32.50;30.20;;;10.30;61.70;;;;;;5094182;28;20246;-73
2022/03/29 02:27:19;;;;;;;32.65;29.80;;;10.30;62.00;;;;;;5094111;28;20224;-73
2022/03/29 02:29:47;;;;;;;31.88;29.48;;;10.30;61.60;;;;;;5093793;28;20283;-73
2022/03/29 02:32:14;;;;;;;32.10;29.80;;;10.30;62.10;;;;;;5093893;28;20281;-73
2022/03/29 02:34:41;;;;;;;32.45;30.00;;;10.30;61.50;;;;;;5094225;28;20225;-74
2022/03/29 02:37:08;;;;;;;33.03;30.63;;;10.30;61.20;;;;;;5093846;28;20204;-74
2022/03/29 02:39:37;;;;;;;33.13;30.73;;;10.30;61.40;;;;;;5093738;28;20281;-74
2022/03/29 02:42:04;;;;;;;33.50;30.77;;;10.30;61.30;;;;;;5093738;28;20698;-74
2022/03/29 02:44:31;;;;;;;32.38;29.55;;;10.30;62.20;;;;;;5093705;28;20279;-74
2022/03/29 02:46:59;;;;;;;31.90;29.55;;;10.30;62.20;;;;;;5093931;28;20203;-73
2022/03/29 02:49:26;;;;;;;32.50;30.20;;;10.30;61.70;;;;;;5093527;28;20207;-74
2022/03/29 02:51:53;;;;;;;31.38;29.08;;;10.30;61.90;;;;;;5093603;28;20235;-74
2022/03/29 02:54:20;;;;;;;34.33;31.15;;;10.40;61.20;;;;;;5093660;28;20225;-74
2022/03/29 02:56:47;;;;;;;30.52;28.33;;;10.40;60.80;;;;;;5093353;28;20285;-74
2022/03/29 02:59:16;;;;;;;32.90;30.40;;;10.50;61.00;;;;;;5092990;28;20210;-74
2022/03/29 03:01:42;;;;;;;31.23;29.13;;;10.50;60.50;;;;;;5093421;28;20192;-74
2022/03/29 03:04:13;;;;;;;32.88;30.10;;;10.60;60.50;;;;;;5093312;28;20197;-74
2022/03/29 03:06:40;;;;;;;32.00;29.58;;;10.60;60.00;;;;;;5093425;28;20728;-74
2022/03/29 03:09:07;;;;;;;34.50;31.70;;;10.50;60.10;;;;;;5093167;28;20672;-73
2022/03/29 03:11:34;;;;;;;34.83;32.05;;;10.40;59.80;;;;;;5093249;28;20269;-74
2022/03/29 03:14:01;;;;;;;33.67;31.17;;;10.40;60.20;;;;;;5093407;28;20218;-73
2022/03/29 03:16:28;;;;;;;33.17;30.60;;;10.30;60.40;;;;;;5093148;28;20657;-73
2022/03/29 03:18:55;;;;;;;33.53;30.83;;;10.50;60.20;;;;;;5093123;28;20246;-74
2022/03/29 03:21:24;;;;;;;32.90;30.10;;;10.40;60.30;;;;;;5092990;28;20197;-74
2022/03/29 03:23:51;;;;;;;32.25;29.77;;;10.40;60.70;;;;;;5092892;28;20251;-73
2022/03/29 03:26:18;;;;;;;32.72;30.33;;;10.30;60.90;;;;;;5093110;28;20226;-74
2022/03/29 03:28:44;;;;;;;33.20;30.48;;;10.20;60.90;;;;;;5093026;28;20200;-73
2022/03/29 03:31:11;;;;;;;32.13;29.83;;;10.20;61.20;;;;;;5092784;28;20241;-74
2022/03/29 03:33:38;;;;;;;32.92;30.23;;;10.20;61.10;;;;;;5092985;28;20222;-73
2022/03/29 03:36:06;;;;;;;33.67;31.23;;;10.20;60.70;;;;;;5092819;28;20208;-74
2022/03/29 03:38:34;;;;;;;33.58;31.10;;;10.10;60.90;;;;;;5092927;28;20201;-73
2022/03/29 03:41:01;;;;;;;35.30;32.63;;;10.10;60.90;;;;;;5092794;28;20284;-74
2022/03/29 03:43:28;;;;;;;33.00;30.42;;;10.10;61.10;;;;;;5092726;28;20223;-73
2022/03/29 03:45:55;;;;;;;33.50;30.92;;;10.10;61.40;;;;;;5092785;28;20301;-74
2022/03/29 03:48:23;;;;;;;35.30;32.42;;;10.10;61.40;;;;;;5092927;28;20645;-73
2022/03/29 03:50:50;;;;;;;31.20;28.98;;;10.10;61.30;;;;;;5092259;28;20225;-74
2022/03/29 03:53:17;;;;;;;33.25;30.65;;;10.10;61.50;;;;;;5092706;28;20737;-73
2022/03/29 03:55:45;;;;;;;35.47;32.15;;;10.10;61.70;;;;;;5092706;28;20571;-73
2022/03/29 03:58:13;;;;;;;35.28;32.67;;;10.00;62.20;;;;;;5092429;28;20208;-73
2022/03/29 04:00:41;;;;;;;35.13;32.55;;;9.80;62.50;;;;;;5092342;28;20196;-74
2022/03/29 04:03:09;;;;;;;36.22;33.33;;;9.80;62.60;;;;;;5092500;28;20215;-74
2022/03/29 04:05:36;;;;;;;36.58;33.83;;;9.90;62.50;;;;;;5092346;28;20680;-73
2022/03/29 04:08:03;;;;;;;34.42;31.73;;;9.80;62.30;;;;;;5092519;28;20209;-74
2022/03/29 04:10:31;;;;;;;34.28;31.67;;;9.90;62.10;;;;;;5092227;28;20227;-73
2022/03/29 04:12:59;;;;;;;35.92;33.00;;;9.90;62.00;;;;;;5092364;28;20694;-73
2022/03/29 04:15:26;;;;;;;34.88;31.92;;;9.80;61.90;;;;;;5092489;28;20216;-73
2022/03/29 04:17:53;;;;;;;35.88;32.78;;;9.80;61.90;;;;;;5092287;28;20202;-73
2022/03/29 04:20:20;;;;;;;35.97;33.28;;;9.80;61.80;;;;;;5092191;28;20212;-74
2022/03/29 04:22:47;;;;;;;33.88;31.23;;;9.70;62.00;;;;;;5092333;28;20308;-73
2022/03/29 04:25:14;;;;;;;36.72;33.88;;;9.70;62.30;;;;;;5092457;28;20277;-74
2022/03/29 04:27:41;;;;;;;35.15;32.55;;;9.70;62.30;;;;;;5092374;28;20229;-73
2022/03/29 04:30:11;;;;;;;35.13;32.20;;;9.70;62.80;;;;;;5092074;28;20290;-73
2022/03/29 04:32:38;;;;;;;34.85;32.05;;;9.60;63.00;;;;;;5092343;28;20630;-73
2022/03/29 04:35:06;;;;;;;34.67;31.73;;;9.60;62.90;;;;;;5093971;28;20201;-73
2022/03/29 04:37:33;;;;;;;34.10;31.50;;;9.60;62.90;;;;;;5096261;28;20196;-74
2022/03/29 04:40:00;;;;;;;34.38;31.85;;;9.60;63.10;;;;;;5096041;28;20200;-74
2022/03/29 04:42:27;;;;;;;34.15;31.20;;;9.60;63.20;;;;;;5096011;28;20687;-74
2022/03/29 04:44:54;;;;;;;34.08;31.45;;;9.60;63.20;;;;;;5096029;28;20198;-73
2022/03/29 04:47:22;;;;;;;37.75;35.05;;;9.70;63.30;;;;;;5096073;28;20197;-73
2022/03/29 04:49:49;;;;;;;35.22;32.53;;;9.70;63.40;;;;;;5095800;28;20192;-74
2022/03/29 04:52:16;;;;;;;34.50;31.80;;;9.70;63.70;;;;;;5095933;28;20770;-73
2022/03/29 04:54:43;;;;;;;34.53;31.83;;;9.60;64.00;;;;;;5095957;28;20280;-74
2022/03/29 04:57:10;;;;;;;34.25;31.55;;;9.60;64.40;;;;;;5095826;28;20196;-74
2022/03/29 04:59:36;;;;;;;34.35;31.48;;;9.50;64.80;;;;;;5095377;28;20207;-74
2022/03/29 05:02:04;;;;;;;65.93;41.50;;;9.50;64.80;;;;;;5095646;28;20216;-73
2022/03/29 05:04:32;;;;;;;35.47;32.53;;;9.50;64.90;;;;;;5095475;28;20229;-74
2022/03/29 05:06:59;;;;;;;34.38;31.42;;;9.40;65.30;;;;;;5095818;28;20283;-74
2022/03/29 05:09:26;;;;;;;35.33;32.30;;;9.40;65.30;;;;;;5095358;28;20235;-74
2022/03/29 05:11:52;;;;;;;36.20;32.47;;;9.30;65.80;;;;;;5095495;28;20217;-73
2022/03/29 05:14:19;;;;;;;35.92;33.08;;;9.30;65.80;;;;;;5095491;28;20231;-73
2022/03/29 05:16:46;;;;;;;36.65;33.75;;;9.40;65.80;;;;;;5095599;28;20197;-73
2022/03/29 05:19:13;;;;;;;36.33;33.65;;;9.30;65.60;;;;;;5095144;28;20212;-73
2022/03/29 05:21:41;;;;;;;35.10;32.13;;;9.30;65.60;;;;;;5095376;28;20231;-73
2022/03/29 05:24:08;;;;;;;34.20;31.48;;;9.20;66.00;;;;;;5095489;28;20227;-74
2022/03/29 05:26:36;;;;;;;33.50;30.80;;;9.20;66.10;;;;;;5095461;28;20292;-74
2022/03/29 05:29:03;;;;;;;34.15;31.17;;;9.20;65.30;;;;;;5095188;28;20200;-74
2022/03/29 05:31:30;;;;;;;33.10;30.35;;;9.20;65.30;;;;;;5095072;28;20218;-74
2022/03/29 05:33:57;;;;;;;39.22;35.47;;;9.20;65.40;;;;;;5095308;28;20222;-74
2022/03/29 05:36:24;;;;;;;37.30;34.45;;;9.20;65.40;;;;;;5095094;28;20675;-74
2022/03/29 05:38:52;;;;;;;33.83;30.90;;;9.30;65.30;;;;;;5094960;28;20666;-73
2022/03/29 05:41:20;;;;;;;35.45;32.08;;;9.30;65.20;;;;;;5094760;28;20197;-74
2022/03/29 05:43:48;;;;;;;39.35;35.55;;;9.30;65.30;;;;;;5095101;28;20250;-73
2022/03/29 05:48:59;;;;;;;33.85;31.25;;;9.30;65.20;;;;;;5094898;28;20197;-74
2022/03/29 05:51:28;;;;;;;37.13;33.75;;;9.40;64.80;;;;;;5094402;28;20693;-74
2022/03/29 05:53:58;;;;;;;33.55;30.80;;;9.50;64.40;;;;;;5094675;28;20220;-73
2022/03/29 05:56:25;;;;;;;34.65;31.30;;;9.60;64.60;;;;;;5094667;28;20196;-74
2022/03/29 05:58:52;;;;;;;34.20;31.15;;;9.60;64.60;;;;;;5094526;28;20287;-74
2022/03/29 06:01:19;;;;;;;33.45;30.55;;;9.70;64.60;;;;;;5094447;28;20501;-74
2022/03/29 06:03:46;;;;;;;35.13;32.42;;;9.80;64.00;;;;;;5094355;28;20599;-74
2022/03/29 06:06:14;;;;;;;38.40;34.90;;;10.00;63.30;;;;;;5094470;28;20201;-74
2022/03/29 06:08:41;;;;;;;38.22;35.40;;;10.00;63.00;;;;;;5094526;28;20289;-73
2022/03/29 06:11:10;;;;;;;33.95;30.95;;;10.00;63.30;;;;;;5094268;28;20222;-74
2022/03/29 06:13:37;;;;;;;33.15;30.55;;;10.00;63.40;;;;;;5094496;28;20229;-74
2022/03/29 06:16:05;;;;;;;33.83;31.17;;;10.20;62.80;;;;;;5094395;28;20234;-73
2022/03/29 06:18:33;;;;;;;36.72;33.80;;;10.30;62.40;;;;;;5094035;28;20204;-73
2022/03/29 06:21:00;;;;;;;36.75;34.10;;;10.40;62.00;;;;;;5093904;28;20196;-74
2022/03/29 06:23:27;;;;;;;33.35;30.63;;;10.50;61.90;;;;;;5094199;28;20298;-74
2022/03/29 06:25:55;;;;;;;37.17;34.27;;;10.60;61.80;;;;;;5094140;28;20378;-74
2022/03/29 06:28:23;;;;;;;34.45;31.65;;;10.60;61.80;;;;;;5094085;28;20458;-74
2022/03/29 06:30:50;;;;;;;34.37;30.93;;;10.80;61.30;;;;;;5093788;28;20195;-74
2022/03/29 06:33:19;;;;;;;34.30;31.37;;;10.90;60.80;;;;;;5093980;28;20476;-74
2022/03/29 06:35:46;;;;;;;34.63;31.87;;;11.00;60.40;;;;;;5093867;28;20543;-74
2022/03/29 06:38:13;;;;;;;35.40;32.03;;;11.10;60.40;;;;;;5093870;28;20460;-74
2022/03/29 06:40:40;;;;;;;39.47;36.40;;;11.20;60.30;;;;;;5093763;28;20542;-74
2022/03/29 06:43:07;;;;;;;35.43;32.37;;;11.20;60.30;;;;;;5093736;28;20473;-74
2022/03/29 06:45:35;;;;;;;36.40;32.70;;;11.20;60.10;;;;;;5093610;28;20831;-74
2022/03/29 06:48:03;;;;;;;36.07;32.40;;;11.10;60.50;;;;;;5093785;28;20477;-74
2022/03/29 06:50:31;;;;;;;36.90;33.57;;;11.30;60.50;;;;;;5093507;28;20492;-74
2022/03/29 06:52:59;;;;;;;35.50;32.70;;;11.40;60.20;;;;;;5093511;28;20850;-74
2022/03/29 06:55:27;;;;;;;35.83;32.80;;;11.50;59.90;;;;;;5093584;28;20455;-74
2022/03/29 06:57:54;;;;;;;35.40;32.13;;;11.60;59.70;;;;;;5093147;28;20806;-74
2022/03/29 07:00:21;;;;;;;35.57;32.80;;;11.70;59.70;;;;;;5093070;28;20554;-74
2022/03/29 07:02:50;;;;;;;36.00;33.00;;;11.70;59.50;;;;;;5093409;28;20560;-74
2022/03/29 07:05:19;;;;;;;39.07;34.50;;;11.80;59.20;;;;;;5093252;28;20457;-74
2022/03/29 07:07:46;;;;;;;35.70;32.60;;;11.80;59.50;;;;;;5093420;28;20530;-74
2022/03/29 07:12:59;;;;;;;34.67;31.77;;;12.00;59.50;;;;;;5093202;28;20835;-74
2022/03/29 07:15:27;;;;;;;37.70;33.40;;;12.10;59.30;;;;;;5093226;28;20963;-74
2022/03/29 07:17:55;;;;;;;37.60;34.10;;;12.30;58.90;;;;;;5093269;28;21022;-74
2022/03/29 07:20:23;;;;;;;36.67;33.47;;;12.50;58.50;;;;;;5092872;28;20461;-74
2022/03/29 07:22:52;;;;;;;37.33;33.90;;;12.90;57.70;;;;;;5092980;28;20564;-74
2022/03/29 07:25:20;;;;;;;37.40;34.33;;;13.00;57.10;;;;;;5093169;28;20452;-74
2022/03/29 07:27:49;;;;;;;36.87;33.93;;;13.10;56.70;;;;;;5093039;28;20503;-74
2022/03/29 07:30:16;;;;;;;38.47;35.30;;;13.40;56.30;;;;;;5092942;28;20537;-74
2022/03/29 07:32:45;;;;;;;39.87;36.20;;;13.50;55.90;;;;;;5093000;28;20564;-74
2022/03/29 07:35:14;;;;;;;39.33;35.83;;;13.70;55.30;;;;;;5093107;28;20450;-74
2022/03/29 07:37:41;;;;;;;42.20;37.70;;;13.70;55.10;;;;;;5093072;28;20456;-74
2022/03/29 07:40:10;;;;;;;64.70;45.83;;;13.80;55.00;;;;;;5092644;28;20853;-74
2022/03/29 07:42:37;;;;;;;42.33;38.10;;;13.70;54.50;;;;;;5092827;28;20461;-74
2022/03/29 07:45:06;;;;;;;39.20;35.33;;;13.90;54.40;;;;;;5092764;28;20453;-74
2022/03/29 07:47:34;;;;;;;40.30;37.30;;;13.90;53.80;;;;;;5092697;28;20514;-74
2022/03/29 07:50:05;;;;;;;39.80;35.93;;;14.00;53.60;;;;;;5092514;28;20445;-74
2022/03/29 07:52:33;;;;;;;40.87;37.33;;;14.10;53.50;;;;;;5092572;28;20481;-74
2022/03/29 07:55:00;;;;;;;40.50;36.90;;;14.10;53.30;;;;;;5092621;28;20951;-74
2022/03/29 07:57:27;;;;;;;40.80;37.30;;;14.20;52.90;;;;;;5092580;28;20453;-74
2022/03/29 07:59:54;;;;;;;41.97;37.77;;;14.20;52.70;;;;;;5092211;28;20454;-74
2022/03/29 08:02:21;;;;;;;42.27;38.77;;;14.40;52.50;;;;;;5092645;28;20472;-75
2022/03/29 08:04:48;;;;;;;40.00;36.33;;;14.60;52.20;;;;;;5092407;28;20448;-74
2022/03/29 08:07:15;;;;;;;40.33;36.83;;;14.80;52.10;;;;;;5092546;28;21006;-74
2022/03/29 08:09:44;;;;;;;43.90;39.77;;;15.00;51.80;;;;;;5093607;28;20454;-74
2022/03/29 08:12:11;;;;;;;40.40;36.50;;;15.20;51.40;;;;;;5096591;28;20854;-74
2022/03/29 08:14:38;;;;;;;40.53;36.80;;;15.20;50.90;;;;;;5096887;28;20807;-73
2022/03/29 08:17:05;;;;;;;41.87;38.20;;;14.80;51.70;;;;;;5096828;28;20474;-74
2022/03/29 08:19:32;;;;;;;40.27;36.90;;;14.80;52.00;;;;;;5096288;28;20528;-74
2022/03/29 08:21:59;;;;;;;41.20;37.77;;;15.00;51.60;;;;;;5096411;28;20552;-74
2022/03/29 08:24:26;;;;;;;42.53;38.53;;;15.20;51.10;;;;;;5096491;28;21022;-74
2022/03/29 08:26:56;;;;;;;42.30;38.53;;;15.40;50.80;;;;;;5096488;28;20471;-74
2022/03/29 08:29:23;;;;;;;41.27;37.87;;;15.60;50.40;;;;;;5096285;28;20460;-74
2022/03/29 08:31:52;;;;;;;40.97;37.23;;;15.70;50.00;;;;;;5096223;28;20483;-74
2022/03/29 08:34:20;;;;;;;40.63;36.93;;;15.80;49.80;;;;;;5096170;28;20492;-74
2022/03/29 08:36:49;;;;;;;42.07;37.60;;;15.90;49.60;;;;;;5096265;28;20489;-74
2022/03/29 08:39:17;;;;;;;42.77;39.17;;;16.00;49.50;;;;;;5096095;28;20485;-74
2022/03/29 08:41:47;;;;;;;41.37;37.50;;;16.10;49.40;;;;;;5096154;28;20460;-74
2022/03/29 08:44:16;;;;;;;44.23;39.80;;;16.20;49.10;;;;;;5096269;28;20457;-75
2022/03/29 08:46:46;;;;;;;41.63;37.73;;;16.30;49.20;;;;;;5096149;28;20504;-75
2022/03/29 08:49:16;;;;;;;41.43;37.83;;;16.30;49.60;;;;;;5095916;28;20449;-74
2022/03/29 08:51:44;;;;;;;42.80;38.63;;;16.30;48.80;;;;;;5095789;28;20546;-74
2022/03/29 08:54:11;;;;;;;49.60;40.03;;;16.40;48.60;;;;;;5095947;28;20893;-74
2022/03/29 08:56:40;;;;;;;41.43;37.43;;;16.50;48.30;;;;;;5095934;28;20537;-74
2022/03/29 08:59:07;;;;;;;42.57;38.87;;;16.50;47.80;;;;;;5095677;28;20453;-74
2022/03/29 09:01:35;;;;;;;42.57;38.40;;;16.60;47.90;;;;;;5095811;28;20963;-74
2022/03/29 09:04:10;;;;;;;45.23;40.40;;;16.70;47.60;;;;;;5095773;28;20473;-74
2022/03/29 09:06:58;;;;;;;42.73;38.23;;;16.70;47.70;;;;;;5095868;28;20531;-74
2022/03/29 09:09:28;;;;;;;44.50;40.30;;;16.90;47.20;;;;;;5095327;28;20477;-75
2022/03/29 09:11:56;;;;;;;43.60;39.17;;;17.00;47.10;;;;;;5095456;28;20450;-74
2022/03/29 09:14:24;;;;;;;44.90;40.90;;;17.00;47.20;;;;;;5095569;28;20826;-74
2022/03/29 09:16:52;;;;;;;43.67;39.87;;;17.20;46.90;;;;;;5095550;28;20492;-74
2022/03/29 09:19:21;;;;;;;42.77;38.77;;;17.30;46.80;;;;;;5095318;28;20464;-74
2022/03/29 09:21:48;;;;;;;39.23;35.80;;;17.50;46.30;;;;;;5095188;28;20445;-74
2022/03/29 09:24:17;;;;;;;41.37;37.47;;;17.50;46.30;;;;;;5095441;28;20449;-74
2022/03/29 09:26:46;;;;;;;41.70;37.90;;;17.60;46.40;;;;;;5095412;28;20863;-74
2022/03/29 09:29:14;;;;;;;44.33;39.87;;;17.70;46.20;;;;;;5095180;28;20540;-74
2022/03/29 09:31:42;;;;;;;41.93;37.43;;;17.90;46.10;;;;;;5095274;28;20446;-74
2022/03/29 09:34:16;;;;;;;48.60;43.60;;;17.80;45.60;;;;;;5095284;28;20485;-74
2022/03/29 09:36:46;;;;;;;42.97;39.07;;;17.90;45.50;;;;;;5095218;28;20532;-74
2022/03/29 09:39:37;;;;;;;43.83;39.83;;;18.10;45.00;;;;;;5095019;28;20450;-74
2022/03/29 09:42:08;;;;;;;41.03;37.73;;;18.30;44.50;;;;;;5095124;28;20476;-74
2022/03/29 09:44:40;;;;;;;43.13;39.37;;;18.20;44.00;;;;;;5095117;28;20528;-74
2022/03/29 09:47:09;;;;;;;43.63;39.97;;;18.00;44.20;;;;;;5094984;28;20449;-74
2022/03/29 09:49:57;;;;;;;42.60;38.93;;;17.80;44.50;;;;;;5094768;28;20464;-74
2022/03/29 09:52:26;;;;;;;41.20;37.70;;;18.00;44.30;;;;;;5094841;28;20491;-74
2022/03/29 09:55:16;;;;;;;41.27;38.30;;;18.10;43.80;;;;;;5094834;28;20454;-74
2022/03/29 09:57:46;;;;;;;39.20;35.80;;;18.20;43.90;;;;;;5094730;28;20507;-74
2022/03/29 10:00:16;;;;;;;41.20;37.80;;;18.40;43.70;;;;;;5094288;28;20465;-74
2022/03/29 10:02:45;;;;;;;39.70;36.33;;;18.60;43.50;;;;;;5094642;28;20552;-74
2022/03/29 10:05:18;;;;;;;39.20;35.90;;;18.80;43.10;;;;;;5094402;28;20460;-74
2022/03/29 10:07:48;;;;;;;41.60;37.97;;;19.00;42.60;;;;;;5094398;28;20450;-74
2022/03/29 10:10:15;;;;;;;40.17;36.77;;;19.00;42.30;;;;;;5094371;28;20442;-75
2022/03/29 10:12:42;;;;;;;39.87;36.20;;;19.00;42.00;;;;;;5094470;28;20572;-74
2022/03/29 10:15:12;;;;;;;39.10;35.23;;;18.90;42.30;;;;;;5094498;28;20521;-74
2022/03/29 10:17:42;;;;;;;39.10;35.77;;;18.90;42.40;;;;;;5094344;28;20490;-72
2022/03/29 10:20:10;;;;;;;39.43;36.00;;;19.10;41.70;;;;;;5093864;28;20781;-72
2022/03/29 10:22:40;;;;;;;43.23;39.40;;;19.10;41.50;;;;;;5094062;28;20830;-72
2022/03/29 10:25:07;;;;;;;39.80;36.10;;;19.20;41.50;;;;;;5094217;28;20456;-74
2022/03/29 10:27:34;;;;;;;37.63;34.67;;;19.00;42.00;;;;;;5094228;28;20568;-74
2022/03/29 10:30:02;;;;;;;38.40;35.17;;;19.10;41.70;;;;;;5093995;28;20508;-74
2022/03/29 10:32:32;;;;;;;39.70;36.10;;;19.30;41.40;;;;;;5093367;28;20572;-74
2022/03/29 10:35:10;;;;;;;40.77;36.93;;;19.40;40.90;;;;;;5093995;28;20457;-74
2022/03/29 10:37:55;;;;;;;37.70;34.90;;;19.30;40.90;;;;;;5093928;28;20500;-74
2022/03/29 10:40:39;;;;;;;38.50;35.40;;;19.40;41.00;;;;;;5092779;28;20456;-74
2022/03/29 10:43:28;;;;;;;37.80;34.83;;;19.50;40.90;;;;;;5093750;28;20497;-73
2022/03/29 10:45:55;;;;;;;39.63;36.30;;;19.50;41.00;;;;;;5085557;28;20536;-74
2022/03/29 10:48:22;;;;;;;43.03;38.53;;;19.60;40.60;;;;;;5093771;28;20452;-74
2022/03/29 10:50:54;;;;;;;39.93;36.60;;;19.70;40.50;;;;;;5093636;28;20458;-74
2022/03/29 10:53:32;;;;;;;37.03;34.10;;;19.70;40.50;;;;;;5093556;28;20488;-74
2022/03/29 10:56:17;;;;;;;40.23;36.70;;;19.70;40.40;;;;;;5093787;28;20533;-74
2022/03/29 10:59:13;;;;;;;36.50;33.60;;;19.80;40.50;;;;;;5093425;28;20465;-74
2022/03/29 11:01:42;;;;;;;45.07;40.27;;;19.60;40.60;;;;;;5093545;28;20461;-74
2022/03/29 11:04:16;;;;;;;43.90;38.13;;;19.60;40.90;;;;;;5093263;28;20446;-74
2022/03/29 11:07:11;;;;;;;40.20;36.70;;;19.30;41.20;;;;;;5093488;28;20879;-74
2022/03/29 11:09:40;;;;;;;41.47;37.80;;;19.50;41.10;;;;;;5093272;28;20453;-74
2022/03/29 11:12:28;;;;;;;39.57;36.03;;;19.60;41.00;;;;;;5093302;28;20469;-74
2022/03/29 11:14:55;;;;;;;39.80;36.30;;;19.80;40.70;;;;;;5093116;28;20926;-74
2022/03/29 11:17:41;;;;;;;39.90;36.30;;;19.80;40.60;;;;;;5093211;28;20885;-74
2022/03/29 11:20:31;;;;;;;39.57;36.20;;;20.10;40.50;;;;;;5093002;28;20449;-74
2022/03/29 11:23:04;;;;;;;39.33;35.90;;;20.20;40.00;;;;;;5093176;28;20520;-74
2022/03/29 11:25:40;;;;;;;40.40;36.87;;;20.30;40.10;;;;;;5093153;28;20450;-74
2022/03/29 11:28:08;;;;;;;40.10;36.70;;;20.50;39.90;;;;;;5093135;28;20454;-74
2022/03/29 11:30:35;;;;;;;40.43;37.10;;;20.60;39.40;;;;;;5092900;28;20460;-74
2022/03/29 11:33:04;;;;;;;40.13;36.60;;;20.60;39.70;;;;;;5092880;28;20532;-74
2022/03/29 11:35:32;;;;;;;40.27;36.60;;;20.60;39.70;;;;;;5092866;28;20462;-74
2022/03/29 11:38:09;;;;;;;39.57;36.37;;;20.60;39.60;;;;;;5092967;28;20536;-74
2022/03/29 11:40:40;;;;;;;43.27;39.30;;;20.60;39.60;;;;;;5092741;28;20449;-74
2022/03/29 11:43:10;;;;;;;40.47;37.27;;;20.70;39.30;;;;;;5093013;28;20472;-73
2022/03/29 11:45:40;;;;;;;43.07;39.17;;;20.60;39.30;;;;;;5092824;28;20844;-74
2022/03/29 11:48:12;;;;;;;46.17;41.40;;;20.50;39.30;;;;;;5092887;28;20549;-74
2022/03/29 11:50:42;;;;;;;66.50;46.47;;;20.20;40.10;;;;;;5092604;28;20981;-74
2022/03/29 11:53:21;;;;;;;40.27;36.67;;;19.80;40.50;;;;;;5092556;28;20527;-74
2022/03/29 11:55:57;;;;;;;46.60;42.20;;;19.80;40.60;;;;;;5092515;28;20536;-74
2022/03/29 11:58:26;;;;;;;41.90;37.40;;;19.70;40.60;;;;;;5092418;28;20449;-74
2022/03/29 12:00:58;;;;;;;40.57;36.83;;;19.90;40.50;;;;;;5092406;28;21397;-74
2022/03/29 12:03:35;;;;;;;39.87;36.70;;;20.20;40.20;;;;;;5092567;28;20465;-74
2022/03/29 12:06:12;;;;;;;43.67;39.30;;;20.50;39.90;;;;;;5092646;28;20449;-74
2022/03/29 12:09:01;;;;;;;47.13;42.30;;;20.60;39.60;;;;;;5092591;28;20450;-73
2022/03/29 12:11:30;;;;;;;40.80;37.33;;;20.50;39.70;;;;;;5092443;28;21006;-74
2022/03/29 12:14:07;;;;;;;45.63;41.03;;;20.70;39.80;;;;;;5092518;28;20569;-74
2022/03/29 12:16:36;;;;;;;52.00;46.40;;;20.90;39.20;;;;;;5092526;28;20530;-74
2022/03/29 12:19:07;;;;;;;41.90;38.13;;;20.70;39.60;;;;;;5092318;28;20514;-74
2022/03/29 12:21:35;;;;;;;42.60;39.10;;;20.90;38.90;;;;;;5092308;28;20454;-74
2022/03/29 12:24:04;;;;;;;42.47;38.57;;;21.10;38.60;;;;;;5092540;28;20823;-74
2022/03/29 12:26:34;;;;;;;41.57;38.20;;;21.20;38.60;;;;;;5092513;28;20582;-74
2022/03/29 12:29:02;;;;;;;43.27;39.27;;;21.10;38.60;;;;;;5092474;28;20456;-74
2022/03/29 12:31:30;;;;;;;42.87;38.93;;;21.20;38.70;;;;;;5092162;28;20476;-74
2022/03/29 12:33:58;;;;;;;42.63;38.83;;;21.40;38.30;;;;;;5092193;28;21017;-74
2022/03/29 12:36:25;;;;;;;43.60;40.00;;;21.30;38.50;;;;;;5092282;28;20449;-74
2022/03/29 12:38:55;;;;;;;44.77;40.30;;;21.50;38.20;;;;;;5092342;28;20457;-74
2022/03/29 12:41:37;;;;;;;43.20;39.47;;;21.40;38.40;;;;;;5092255;28;20541;-74
2022/03/29 12:44:06;;;;;;;42.10;38.30;;;21.40;38.10;;;;;;5092415;28;20540;-74
2022/03/29 12:46:34;;;;;;;44.77;41.00;;;21.50;37.90;;;;;;5092329;28;20477;-74